createdAt,value
2019-05-23T00:01:30.989Z,55.85
2019-05-23T00:04:31.929Z,56.50
2019-05-23T00:07:27.430Z,57.11
2019-05-23T00:10:26.742Z,57.51
2019-05-23T00:13:04.952Z,58.93
2019-05-23T00:15:43.030Z,58.53
2019-05-23T00:18:21.299Z,58.78
2019-05-23T00:20:55.309Z,58.85
2019-05-23T00:23:29.518Z,58.95
2019-05-23T00:26:03.877Z,59.05
2019-05-23T00:28:38.104Z,59.13
2019-05-23T00:31:34.480Z,58.94
2019-05-23T00:34:11.746Z,59.41
2019-05-23T00:36:46.937Z,59.35
2019-05-23T00:39:21.113Z,58.90
2019-05-23T00:41:57.366Z,59.32
2019-05-23T00:44:32.634Z,59.59
2019-05-23T00:47:08.778Z,59.66
2019-05-23T00:49:44.443Z,59.69
2019-05-23T00:52:18.688Z,59.70
2019-05-23T00:54:53.514Z,59.81
2019-05-23T00:57:29.200Z,61.08
2019-05-23T01:00:03.687Z,60.47
2019-05-23T01:02:39.020Z,60.47
2019-05-23T01:05:15.174Z,60.51
2019-05-23T01:07:51.170Z,60.67
2019-05-23T01:10:27.663Z,59.73
2019-05-23T01:13:03.441Z,59.00
2019-05-23T01:15:38.784Z,59.70
2019-05-23T01:18:13.710Z,60.92
2019-05-23T01:21:05.278Z,61.71
2019-05-23T01:23:44.049Z,60.66
2019-05-23T01:26:19.545Z,60.10
2019-05-23T01:28:54.023Z,59.76
2019-05-23T01:31:33.950Z,59.99
2019-05-23T01:34:09.954Z,60.14
2019-05-23T01:36:44.489Z,59.41
2019-05-23T01:39:20.393Z,58.81
2019-05-23T01:41:54.733Z,60.70
2019-05-23T01:44:29.899Z,60.79
2019-05-23T01:47:04.683Z,60.04
2019-05-23T01:49:40.875Z,59.84
2019-05-23T01:52:17.388Z,60.10
2019-05-23T01:54:51.862Z,60.32
2019-05-23T01:57:27.080Z,60.43
2019-05-23T02:00:10.323Z,60.54
2019-05-23T02:02:38.993Z,60.74
2019-05-23T02:05:14.693Z,61.90
2019-05-23T02:07:49.367Z,61.19
2019-05-23T02:10:24.005Z,60.24
2019-05-23T02:12:58.630Z,60.34
2019-05-23T02:15:33.802Z,59.59
2019-05-23T02:18:08.539Z,59.60
2019-05-23T02:20:43.361Z,60.36
2019-05-23T02:23:18.870Z,60.99
2019-05-23T02:25:54.503Z,61.57
2019-05-23T02:28:30.901Z,62.53
2019-05-23T02:31:06.199Z,61.67
2019-05-23T02:33:41.065Z,61.68
2019-05-23T02:36:15.805Z,61.72
2019-05-23T02:39:09.726Z,61.21
2019-05-23T02:42:01.951Z,60.37
2019-05-23T02:44:38.231Z,60.14
2019-05-23T02:47:26.975Z,61.02
2019-05-23T02:50:03.240Z,61.76
2019-05-23T02:52:57.251Z,62.93
2019-05-23T02:55:39.053Z,62.37
2019-05-23T02:58:32.365Z,62.20
2019-05-23T03:01:37.825Z,62.25
2019-05-23T03:04:19.407Z,62.35
2019-05-23T03:06:54.942Z,62.32
2019-05-23T03:09:32.207Z,62.24
2019-05-23T03:12:09.818Z,62.26
2019-05-23T03:14:46.514Z,61.78
2019-05-23T03:17:25.279Z,61.07
2019-05-23T03:20:06.298Z,60.96
2019-05-23T03:22:46.229Z,61.69
2019-05-23T03:25:57.944Z,62.46
2019-05-23T03:28:34.802Z,62.74
2019-05-23T03:31:28.566Z,63.32
2019-05-23T03:33:52.716Z,61.83
2019-05-23T03:36:29.967Z,59.61
2019-05-23T03:39:19.174Z,57.93
2019-05-23T03:42:08.557Z,56.81
2019-05-23T03:45:05.344Z,55.79
2019-05-23T03:47:46.516Z,54.79
2019-05-23T03:50:31.607Z,54.57
2019-05-23T03:53:12.046Z,53.90
2019-05-23T03:55:50.860Z,53.46
2019-05-23T03:58:33.470Z,53.26
2019-05-23T04:01:21.406Z,53.23
2019-05-23T04:04:11.546Z,53.28
2019-05-23T04:06:56.150Z,53.27
2019-05-23T04:09:34.540Z,53.58
2019-05-23T04:12:10.432Z,53.61
2019-05-23T04:14:45.006Z,53.66
2019-05-23T04:17:19.000Z,53.75
2019-05-23T04:19:52.887Z,53.81
2019-05-23T04:22:28.184Z,53.70
2019-05-23T04:25:02.821Z,53.81
2019-05-23T04:27:43.843Z,53.78
2019-05-23T04:30:19.930Z,53.82
2019-05-23T04:32:58.979Z,53.84
2019-05-23T04:35:40.602Z,53.80
2019-05-23T04:38:36.952Z,53.80
2019-05-23T04:41:19.844Z,54.38
2019-05-23T04:43:57.127Z,54.63
2019-05-23T04:46:47.058Z,54.75
2019-05-23T04:49:24.282Z,54.73
2019-05-23T04:52:06.489Z,54.95
2019-05-23T04:54:44.197Z,55.09
2019-05-23T04:57:23.224Z,55.11
2019-05-23T05:00:14.233Z,55.16
2019-05-23T05:03:09.719Z,55.19
2019-05-23T05:05:52.984Z,55.20
2019-05-23T05:08:43.532Z,57.75
2019-05-23T05:11:24.914Z,57.05
2019-05-23T05:14:09.481Z,56.87
2019-05-23T05:16:59.193Z,56.72
2019-05-23T05:19:49.991Z,56.53
2019-05-23T05:22:25.517Z,56.38
2019-05-23T05:25:05.125Z,56.38
2019-05-23T05:28:03.717Z,56.58
2019-05-23T05:30:40.018Z,56.82
2019-05-23T05:33:17.481Z,57.11
2019-05-23T05:35:59.470Z,56.86
2019-05-23T05:38:36.325Z,56.77
2019-05-23T05:41:12.748Z,56.62
2019-05-23T05:43:47.766Z,56.35
2019-05-23T05:46:23.331Z,56.17
2019-05-23T05:49:00.418Z,56.01
2019-05-23T05:51:36.169Z,56.01
2019-05-23T05:54:13.755Z,55.94
2019-05-23T05:57:01.275Z,55.82
2019-05-23T05:59:41.283Z,55.68
2019-05-23T06:02:21.214Z,55.57
2019-05-23T06:05:00.610Z,55.47
2019-05-23T06:07:44.571Z,55.33
2019-05-23T06:10:22.458Z,55.39
2019-05-23T06:13:00.667Z,55.40
2019-05-23T06:15:37.434Z,55.42
2019-05-23T06:18:17.320Z,55.45
2019-05-23T06:20:54.595Z,55.37
2019-05-23T06:23:37.234Z,55.31
2019-05-23T06:26:15.598Z,55.23
2019-05-23T06:28:57.319Z,55.15
2019-05-23T06:31:37.568Z,55.06
2019-05-23T06:34:15.573Z,54.93
2019-05-23T06:36:54.594Z,54.83
2019-05-23T06:39:33.310Z,54.75
2019-05-23T06:42:22.993Z,54.53
2019-05-23T06:45:00.627Z,54.29
2019-05-23T06:47:40.890Z,53.91
2019-05-23T06:50:21.693Z,53.88
2019-05-23T06:53:02.889Z,53.78
2019-05-23T06:55:43.004Z,53.60
2019-05-23T06:58:21.025Z,53.58
2019-05-23T07:00:59.665Z,53.67
2019-05-23T07:03:50.415Z,53.75
2019-05-23T07:06:28.780Z,53.70
2019-05-23T07:09:11.353Z,53.73
2019-05-23T07:11:45.950Z,53.91
2019-05-23T07:14:25.933Z,54.16
2019-05-23T07:17:03.175Z,55.23
2019-05-23T07:19:41.040Z,55.42
2019-05-23T07:22:19.651Z,56.33
2019-05-23T07:24:58.823Z,55.57
2019-05-23T07:27:38.968Z,55.59
2019-05-23T07:30:21.167Z,55.61
2019-05-23T07:32:59.816Z,55.64
2019-05-23T07:35:38.438Z,55.62
2019-05-23T07:38:22.452Z,55.35
2019-05-23T07:40:59.350Z,55.27
2019-05-23T07:43:37.994Z,55.36
2019-05-23T07:46:17.198Z,55.35
2019-05-23T07:48:55.211Z,55.24
2019-05-23T07:51:39.033Z,55.24
2019-05-23T07:54:28.396Z,55.29
2019-05-23T07:57:09.791Z,55.21
2019-05-23T07:59:47.614Z,55.07
2019-05-23T08:02:36.477Z,55.08
2019-05-23T08:05:18.133Z,54.96
2019-05-23T08:07:59.567Z,54.86
2019-05-23T08:10:38.284Z,54.81
2019-05-23T08:13:16.028Z,54.76
2019-05-23T08:15:56.856Z,54.58
2019-05-23T08:18:34.454Z,54.52
2019-05-23T08:21:14.128Z,54.44
2019-05-23T08:23:51.973Z,54.42
2019-05-23T08:26:33.419Z,54.30
2019-05-23T08:29:25.600Z,54.32
2019-05-23T08:31:50.051Z,54.18
2019-05-23T08:34:40.527Z,54.12
2019-05-23T08:37:16.465Z,54.15
2019-05-23T08:39:57.396Z,54.51
2019-05-23T08:42:39.794Z,52.02
2019-05-23T08:45:15.451Z,50.67
2019-05-23T08:47:53.485Z,50.11
2019-05-23T08:50:32.763Z,50.50
2019-05-23T08:53:11.162Z,49.55
2019-05-23T08:55:56.634Z,48.52
2019-05-23T08:58:34.110Z,47.49
2019-05-23T09:01:11.495Z,47.05
2019-05-23T09:03:53.467Z,46.65
2019-05-23T09:06:32.216Z,47.07
2019-05-23T09:09:28.428Z,47.96
2019-05-23T09:11:52.214Z,48.34
2019-05-23T09:14:29.506Z,48.53
2019-05-23T09:17:09.041Z,49.64
2019-05-23T09:19:47.383Z,51.33
2019-05-23T09:22:25.353Z,49.85
2019-05-23T09:25:02.044Z,49.09
2019-05-23T09:27:44.025Z,48.45
2019-05-23T09:30:23.488Z,48.41
2019-05-23T09:32:59.740Z,47.95
2019-05-23T09:35:38.337Z,47.74
2019-05-23T09:38:15.282Z,47.65
2019-05-23T09:40:52.205Z,47.57
2019-05-23T09:43:29.699Z,47.52
2019-05-23T09:46:07.678Z,47.52
2019-05-23T09:48:45.600Z,47.49
2019-05-23T09:51:28.653Z,47.49
2019-05-23T09:54:06.182Z,47.51
2019-05-23T09:56:44.632Z,47.58
2019-05-23T09:59:22.974Z,47.62
2019-05-23T10:02:02.403Z,47.67
2019-05-23T10:04:40.023Z,47.75
2019-05-23T10:07:17.678Z,47.78
2019-05-23T10:09:54.805Z,47.87
2019-05-23T10:12:33.012Z,47.96
2019-05-23T10:15:13.556Z,48.00
2019-05-23T10:17:51.165Z,48.01
2019-05-23T10:20:30.370Z,48.05
2019-05-23T10:23:07.774Z,48.07
2019-05-23T10:25:51.054Z,48.11
2019-05-23T10:28:27.410Z,48.17
2019-05-23T10:31:06.503Z,48.19
2019-05-23T10:33:45.067Z,48.20
2019-05-23T10:36:22.414Z,48.25
2019-05-23T10:38:58.981Z,48.29
2019-05-23T10:41:35.454Z,48.34
2019-05-23T10:44:15.759Z,48.37
2019-05-23T10:46:54.500Z,48.38
2019-05-23T10:49:31.782Z,48.45
2019-05-23T10:52:11.169Z,48.47
2019-05-23T10:54:48.888Z,48.50
2019-05-23T10:57:27.122Z,48.53
2019-05-23T11:00:04.481Z,48.55
2019-05-23T11:02:43.445Z,48.60
2019-05-23T11:05:20.955Z,48.64
2019-05-23T11:07:59.843Z,48.65
2019-05-23T11:10:36.595Z,48.70
2019-05-23T11:13:11.680Z,48.73
2019-05-23T11:15:47.067Z,48.76
2019-05-23T11:18:22.871Z,48.78
2019-05-23T11:20:57.949Z,48.80
2019-05-23T11:23:37.431Z,48.84
2019-05-23T11:26:12.519Z,48.88
2019-05-23T11:28:47.630Z,49.00
2019-05-23T11:31:23.509Z,49.03
2019-05-23T11:33:59.197Z,49.03
2019-05-23T11:36:36.681Z,48.91
2019-05-23T11:39:13.071Z,48.92
2019-05-23T11:41:48.588Z,48.95
2019-05-23T11:44:23.214Z,48.97
2019-05-23T11:46:58.580Z,48.95
2019-05-23T11:49:34.529Z,48.98
2019-05-23T11:52:09.039Z,48.99
2019-05-23T11:54:46.681Z,49.00
2019-05-23T11:57:21.073Z,49.02
2019-05-23T11:59:56.220Z,49.02
2019-05-23T12:02:39.768Z,49.03
2019-05-23T12:05:26.958Z,49.02
2019-05-23T12:08:01.300Z,49.04
2019-05-23T12:10:35.834Z,49.05
2019-05-23T12:13:10.728Z,49.08
2019-05-23T12:15:46.021Z,49.07
2019-05-23T12:18:21.455Z,49.09
2019-05-23T12:20:59.642Z,49.09
2019-05-23T12:23:33.366Z,49.08
2019-05-23T12:26:07.864Z,49.10
2019-05-23T12:28:42.316Z,49.11
2019-05-23T12:31:16.445Z,49.11
2019-05-23T12:33:50.866Z,49.13
2019-05-23T12:36:25.207Z,49.13
2019-05-23T12:38:59.166Z,49.13
2019-05-23T12:41:33.993Z,49.14
2019-05-23T12:44:08.629Z,49.14
2019-05-23T12:46:42.876Z,49.15
2019-05-23T12:49:24.019Z,49.17
2019-05-23T12:51:59.150Z,49.20
2019-05-23T12:54:33.902Z,49.20
2019-05-23T12:57:09.790Z,49.20
2019-05-23T12:59:43.808Z,49.22
2019-05-23T13:02:23.270Z,49.22
2019-05-23T13:04:57.844Z,49.29
2019-05-23T13:07:36.344Z,49.29
2019-05-23T13:10:09.761Z,49.23
2019-05-23T13:12:44.080Z,49.31
2019-05-23T13:15:18.453Z,49.30
2019-05-23T13:17:52.730Z,49.33
2019-05-23T13:20:26.745Z,49.37
2019-05-23T13:23:00.869Z,49.38
2019-05-23T13:25:35.019Z,49.41
2019-05-23T13:28:09.168Z,49.44
2019-05-23T13:30:43.168Z,49.46
2019-05-23T13:33:18.030Z,49.47
2019-05-23T13:35:51.877Z,49.50
2019-05-23T13:38:25.805Z,49.52
2019-05-23T13:40:59.611Z,49.54
2019-05-23T13:43:33.966Z,49.55
2019-05-23T13:46:08.177Z,49.56
2019-05-23T13:48:42.208Z,49.60
2019-05-23T13:51:16.339Z,49.74
2019-05-23T13:53:50.088Z,49.74
2019-05-23T13:56:24.323Z,49.66
2019-05-23T13:58:58.925Z,49.67
2019-05-23T14:01:33.321Z,49.44
2019-05-23T14:04:07.747Z,49.73
2019-05-23T14:06:42.616Z,49.75
2019-05-23T14:09:17.217Z,49.82
2019-05-23T14:12:19.647Z,49.84
2019-05-23T14:14:27.639Z,49.92
2019-05-23T14:17:35.645Z,49.92
2019-05-23T14:20:10.929Z,49.95
2019-05-23T14:22:50.220Z,50.08
2019-05-23T14:25:25.055Z,50.21
2019-05-23T14:28:06.373Z,50.29
2019-05-23T14:31:02.564Z,50.36
2019-05-23T14:33:47.925Z,50.43
2019-05-23T14:36:32.069Z,50.45
2019-05-23T14:39:05.910Z,50.50
2019-05-23T14:41:50.245Z,50.56
2019-05-23T14:44:24.662Z,50.61
2019-05-23T14:47:21.249Z,50.61
2019-05-23T14:50:09.751Z,50.65
2019-05-23T14:52:44.657Z,50.72
2019-05-23T14:55:19.152Z,50.75
2019-05-23T14:57:53.592Z,50.75
2019-05-23T15:00:28.651Z,50.77
2019-05-23T15:03:02.672Z,50.77
2019-05-23T15:05:37.358Z,50.76
2019-05-23T15:08:11.533Z,50.76
2019-05-23T15:10:47.082Z,50.81
2019-05-23T15:13:21.349Z,50.78
2019-05-23T15:15:55.703Z,50.79
2019-05-23T15:18:29.822Z,50.81
2019-05-23T15:21:03.848Z,50.84
2019-05-23T15:23:38.098Z,50.85
2019-05-23T15:26:22.455Z,50.86
2019-05-23T15:28:47.625Z,50.86
2019-05-23T15:31:21.987Z,50.88
2019-05-23T15:33:56.300Z,50.89
2019-05-23T15:36:30.518Z,50.90
2019-05-23T15:39:09.341Z,50.92
2019-05-23T15:41:40.607Z,50.96
2019-05-23T15:44:25.453Z,50.96
2019-05-23T15:46:51.113Z,50.97
2019-05-23T15:49:25.547Z,50.98
2019-05-23T15:52:10.780Z,50.96
2019-05-23T15:54:55.161Z,50.96
2019-05-23T15:57:40.947Z,50.95
2019-05-23T16:00:32.386Z,50.93
2019-05-23T16:03:14.234Z,50.97
2019-05-23T16:05:48.532Z,50.99
2019-05-23T16:08:23.157Z,50.99
2019-05-23T16:10:57.597Z,51.02
2019-05-23T16:13:31.981Z,51.05
2019-05-23T16:16:06.127Z,51.13
2019-05-23T16:18:40.659Z,51.16
2019-05-23T16:21:15.566Z,51.21
2019-05-23T16:23:49.934Z,51.25
2019-05-23T16:26:23.931Z,51.29
2019-05-23T16:28:58.238Z,51.51
2019-05-23T16:31:32.117Z,51.74
2019-05-23T16:34:06.752Z,51.65
2019-05-23T16:36:40.719Z,51.53
2019-05-23T16:39:15.203Z,51.57
2019-05-23T16:41:49.149Z,51.90
2019-05-23T16:44:23.385Z,52.03
2019-05-23T16:46:57.654Z,52.07
2019-05-23T16:49:31.901Z,52.14
2019-05-23T16:52:06.186Z,51.88
2019-05-23T16:54:44.480Z,51.81
2019-05-23T16:57:37.328Z,51.84
2019-05-23T17:00:43.744Z,51.85
2019-05-23T17:03:24.975Z,51.85
2019-05-23T17:06:14.127Z,51.86
2019-05-23T17:09:13.648Z,51.90
2019-05-23T17:12:02.860Z,52.92
2019-05-23T17:14:45.292Z,52.93
2019-05-23T17:18:00.111Z,53.18
2019-05-23T17:20:40.139Z,52.64
2019-05-23T17:23:33.344Z,53.54
2019-05-23T17:26:29.336Z,52.79
2019-05-23T17:29:05.289Z,52.82
2019-05-23T17:31:40.569Z,53.70
2019-05-23T17:34:15.096Z,53.81
2019-05-23T17:36:49.213Z,54.30
2019-05-23T17:39:25.317Z,53.63
2019-05-23T17:41:59.430Z,53.44
2019-05-23T17:44:33.676Z,53.13
2019-05-23T17:47:08.291Z,52.89
2019-05-23T17:49:42.596Z,52.79
2019-05-23T17:52:17.149Z,52.66
2019-05-23T17:54:51.811Z,52.89
2019-05-23T17:57:26.311Z,52.77
2019-05-23T18:00:00.546Z,53.23
2019-05-23T18:02:34.892Z,53.32
2019-05-23T18:05:09.784Z,52.94
2019-05-23T18:07:45.267Z,52.88
2019-05-23T18:10:19.914Z,52.69
2019-05-23T18:12:54.279Z,52.60
2019-05-23T18:15:28.714Z,52.58
2019-05-23T18:18:03.607Z,52.60
2019-05-23T18:20:39.720Z,52.63
2019-05-23T18:23:14.415Z,52.61
2019-05-23T18:25:49.138Z,52.57
2019-05-23T18:28:23.662Z,52.51
2019-05-23T18:31:06.005Z,52.57
2019-05-23T18:33:37.705Z,52.53
2019-05-23T18:36:12.123Z,52.53
2019-05-23T18:38:46.325Z,52.58
2019-05-23T18:41:20.365Z,52.58
2019-05-23T18:43:55.352Z,52.57
2019-05-23T18:46:37.735Z,52.51
2019-05-23T18:49:11.987Z,52.56
2019-05-23T18:51:46.148Z,52.56
2019-05-23T18:54:20.672Z,52.58
2019-05-23T18:56:54.799Z,52.55
2019-05-23T18:59:29.744Z,52.58
2019-05-23T19:02:03.776Z,52.61
2019-05-23T19:04:38.198Z,52.60
2019-05-23T19:07:12.677Z,52.61
2019-05-23T19:09:46.991Z,52.65
2019-05-23T19:12:21.064Z,52.72
2019-05-23T19:14:55.190Z,52.69
2019-05-23T19:17:29.608Z,52.68
2019-05-23T19:20:04.648Z,52.69
2019-05-23T19:22:39.927Z,52.68
2019-05-23T19:25:14.278Z,52.67
2019-05-23T19:27:48.843Z,52.68
2019-05-23T19:30:23.083Z,52.66
2019-05-23T19:32:57.815Z,52.70
2019-05-23T19:35:32.024Z,52.79
2019-05-23T19:38:06.781Z,52.75
2019-05-23T19:40:41.323Z,52.76
2019-05-23T19:43:16.535Z,52.82
2019-05-23T19:45:50.546Z,52.80
2019-05-23T19:48:24.839Z,52.75
2019-05-23T19:50:58.940Z,52.75
2019-05-23T19:53:33.382Z,52.81
2019-05-23T19:56:09.226Z,52.81
2019-05-23T19:58:43.620Z,52.77
2019-05-23T20:01:19.200Z,52.79
2019-05-23T20:03:53.293Z,52.84
2019-05-23T20:06:27.574Z,52.81
2019-05-23T20:09:02.403Z,52.88
2019-05-23T20:11:53.358Z,52.92
2019-05-23T20:14:13.853Z,52.88
2019-05-23T20:16:47.650Z,52.88
2019-05-23T20:19:21.750Z,52.90
2019-05-23T20:21:56.689Z,53.01
2019-05-23T20:24:31.187Z,53.00
2019-05-23T20:27:05.114Z,52.91
2019-05-23T20:29:39.310Z,52.96
2019-05-23T20:32:13.299Z,53.07
2019-05-23T20:34:47.389Z,53.01
2019-05-23T20:37:23.470Z,53.11
2019-05-23T20:39:57.599Z,53.07
2019-05-23T20:42:31.700Z,53.12
2019-05-23T20:45:05.903Z,53.11
2019-05-23T20:47:39.907Z,53.09
2019-05-23T20:50:16.167Z,53.15
2019-05-23T20:52:50.167Z,53.14
2019-05-23T20:55:25.010Z,53.13
2019-05-23T20:57:59.440Z,53.20
2019-05-23T21:00:55.898Z,53.29
2019-05-23T21:03:30.775Z,53.17
2019-05-23T21:06:05.411Z,53.28
2019-05-23T21:08:40.117Z,53.19
2019-05-23T21:11:14.442Z,53.29
2019-05-23T21:13:48.674Z,53.23
2019-05-23T21:16:22.967Z,53.09
2019-05-23T21:18:57.072Z,53.16
2019-05-23T21:21:31.280Z,53.14
2019-05-23T21:24:05.414Z,53.20
2019-05-23T21:26:40.025Z,53.14
2019-05-23T21:29:14.452Z,53.20
2019-05-23T21:31:48.998Z,53.19
2019-05-23T21:34:23.119Z,53.23
2019-05-23T21:36:57.370Z,53.22
2019-05-23T21:39:31.616Z,53.36
2019-05-23T21:42:05.960Z,53.27
2019-05-23T21:44:40.160Z,53.20
2019-05-23T21:47:14.439Z,53.22
2019-05-23T21:49:48.344Z,53.34
2019-05-23T21:52:22.166Z,53.28
2019-05-23T21:54:56.172Z,53.34
2019-05-23T21:57:30.207Z,53.34
2019-05-23T22:00:04.331Z,53.29
2019-05-23T22:02:40.028Z,53.34
2019-05-23T22:05:17.076Z,53.38
2019-05-23T22:07:51.323Z,53.33
2019-05-23T22:10:25.466Z,53.35
2019-05-23T22:13:04.541Z,53.31
2019-05-23T22:15:40.163Z,53.28
2019-05-23T22:18:14.206Z,53.30
2019-05-23T22:20:48.376Z,53.35
2019-05-23T22:23:22.642Z,53.28
2019-05-23T22:25:56.830Z,53.35
2019-05-23T22:28:31.137Z,53.28
2019-05-23T22:31:05.344Z,53.37
2019-05-23T22:33:42.421Z,53.23
2019-05-23T22:36:17.861Z,53.25
2019-05-23T22:38:51.953Z,53.33
2019-05-23T22:41:25.992Z,53.31
2019-05-23T22:44:00.139Z,53.36
2019-05-23T22:46:34.740Z,53.36
2019-05-23T22:49:08.853Z,53.33
2019-05-23T22:51:43.163Z,53.30
2019-05-23T22:54:17.467Z,53.29
2019-05-23T22:56:51.701Z,53.38
2019-05-23T22:59:27.076Z,53.42
2019-05-23T23:02:01.127Z,53.43
2019-05-23T23:04:35.223Z,53.42
2019-05-23T23:07:09.377Z,53.38
2019-05-23T23:09:43.816Z,53.45
2019-05-23T23:12:18.125Z,53.43
2019-05-23T23:14:53.251Z,53.42
2019-05-23T23:17:27.468Z,53.40
2019-05-23T23:20:02.711Z,53.38
2019-05-23T23:22:37.035Z,53.38
2019-05-23T23:25:11.122Z,53.49
2019-05-23T23:27:48.501Z,53.42
2019-05-23T23:30:27.235Z,53.43
2019-05-23T23:33:01.280Z,53.49
2019-05-23T23:35:35.549Z,53.46
2019-05-23T23:38:10.181Z,53.50
2019-05-23T23:40:44.065Z,53.46
2019-05-23T23:43:18.412Z,53.46
2019-05-23T23:46:09.693Z,53.45
2019-05-23T23:49:01.149Z,53.48
2019-05-23T23:51:52.580Z,53.46
2019-05-23T23:54:44.393Z,53.44
2019-05-23T23:57:35.398Z,53.44
